• Join FlightAware (Why Join?)
  • Login
  • US Flag 
12:48AM EDT


 

Airport Tracker/Info


-or-


 

Live Flight TrackerFlight Track Log ✈ UAL1414 ✈ 17-Jun-2013 ✈ KSFO - KIAD

Flight Track Log - Related Links

Times and Time Zones

All times are in EDT time to prevent confusion due to time zone crossing. See the UAL1414 flight status page for this flight to view local times or setup timezone preferences in your user account.

Time Position Orientation Groundspeed Altitude Reporting Facility
EDT Latitude Longitude Course Direction KTS MPH feet Rate Location/Type
07:54PM 37.6333 -122.3500 74° East 186 214 1,300  Level Northern Cal TRACON
07:55PM 37.6833 -122.3000 38° Northeast 237 273 3,100 2,160 Climbing Northern Cal TRACON
07:56PM 37.8456 -121.9577 54° Northeast  Level FlightAware Approximate
07:56PM 37.7333 -122.2167 53° Northeast 279 321 5,700  Level Northern Cal TRACON
07:57PM 37.9167 -121.8140 90° East  Level FlightAware Approximate
07:57PM 37.7667 -122.1500 58° Northeast 297 342 8,200  Level Northern Cal TRACON
07:58PM 37.9444 -121.6510 82° East  Level FlightAware Approximate
07:58PM 37.7833 -122.0333 80° East 316 364 11,100  Level Northern Cal TRACON
07:59PM 37.9754 -121.4858 74° East  Level FlightAware Approximate
08:00PM 37.8719 -121.7436 69° East 409 471 14,200  Level Oakland Center
08:01PM 37.9114 -121.5981 71° East 429 494 16,400 2,040 Climbing Oakland Center
08:02PM 37.9525 -121.4514 70° East 441 507 18,400 1,860 Climbing Oakland Center
08:03PM 37.9939 -121.2997 71° East 453 521 20,200 1,260 Climbing Oakland Center
08:04PM 38.0364 -121.1419 71° East 472 543 21,000 360 Climbing Oakland Center
08:05PM 38.0992 -120.9600 66° East 479 551 21,000 120 Level Oakland Center
08:06PM 38.1683 -120.8211 58° Northeast 468 539 21,300 540 Climbing Oakland Center
08:07PM 38.2397 -120.6803 57° Northeast 475 547 22,200 1,080 Climbing Oakland Center
08:08PM 38.3106 -120.5336 58° Northeast 486 559 23,500 1,260 Climbing Oakland Center
08:09PM 38.3397 -120.3608 78° East 502 578 24,900 1,320 Climbing Oakland Center
08:10PM 38.3658 -120.1872 79° East 502 578 26,300 1,500 Climbing Oakland Center
08:11PM 38.3950 -120.0128 78° East 503 579 28,000 1,320 Climbing Oakland Center
08:12PM 38.4228 -119.8386 78° East 503 579 29,100 1,200 Climbing Oakland Center
08:13PM 38.4489 -119.6500 80° East 505 581 30,500 1,200 Climbing Oakland Center
08:14PM 38.4758 -119.4731 79° East 510 587 31,600 960 Climbing Oakland Center
08:15PM 38.5022 -119.2961 79° East 511 588 32,500 960 Climbing Oakland Center
08:16PM 38.5339 -119.0792 79° East 520 598 33,600 1,080 Climbing Oakland Center
08:17PM 38.5594 -118.9006 80° East 516 594 34,800 960 Climbing Oakland Center
08:18PM 38.5853 -118.7244 79° East 509 586 35,600 660 Climbing Oakland Center
08:19PM 38.6106 -118.5475 80° East 509 586 36,200 660 Climbing Oakland Center
08:20PM 38.6353 -118.3708 80° East 509 586 37,000 360 Climbing Oakland Center
08:21PM 38.6608 -118.1931 80° East 510 587 37,000  Level Oakland Center
08:22PM 38.6847 -118.0189 80° East 505 581 37,000  Level Oakland Center
08:23PM 38.7083 -117.8439 80° East 503 579 37,000  Level Oakland Center
08:24PM 38.7322 -117.6644 80° East 501 577 37,000  Level Oakland Center
08:25PM 38.7408 -117.5928 81° East 503 579 37,000  Level Salt Lake Center
08:25PM 38.7606 -117.4503 80° East 505 581 37,000  Level Oakland Center
08:26PM 38.7839 -117.2708 80° East 506 582 37,000  Level Oakland Center
08:27PM 38.7875 -117.2356 83° East 506 582 37,000  Level Salt Lake Center
08:27PM 38.8069 -117.0936 80° East 503 579 37,000  Level Oakland Center
08:28PM 38.8292 -116.9156 81° East 502 578 37,000  Level Oakland Center
08:29PM 38.8369 -116.8442 82° East 504 580 37,000  Level Salt Lake Center
08:30PM 38.8589 -116.6664 81° East 503 579 37,000  Level Salt Lake Center
08:31PM 38.8742 -116.5608 79° East 501 577 37,000  Level Oakland Center
08:31PM 38.8817 -116.4900 82° East 501 577 37,000  Level Salt Lake Center
08:32PM 38.9028 -116.3114 81° East 504 580 37,000  Level Salt Lake Center
08:33PM 38.9250 -116.1342 81° East 504 580 37,000  Level Salt Lake Center
08:34PM 38.9458 -115.9556 81° East 506 582 37,000  Level Salt Lake Center
08:35PM 38.9675 -115.7753 81° East 509 586 37,000  Level Salt Lake Center
08:36PM 38.9881 -115.5964 82° East 507 583 37,000  Level Salt Lake Center
08:37PM 39.0125 -115.3819 82° East 504 580 37,000  Level Salt Lake Center
08:38PM 39.0314 -115.2242 81° East 509 586 37,000  Level Salt Lake Center
08:39PM 39.0508 -115.0444 82° East 508 585 37,000  Level Salt Lake Center
08:40PM 39.0739 -114.8294 82° East 506 582 37,000  Level Salt Lake Center
08:41PM 39.0947 -114.6483 82° East 511 588 37,000  Level Salt Lake Center
08:42PM 39.1131 -114.4700 82° East 506 582 37,000  Level Salt Lake Center
08:43PM 39.1317 -114.2908 82° East 504 580 37,000  Level Salt Lake Center
08:44PM 39.1508 -114.1111 82° East 506 582 37,000  Level Salt Lake Center
08:45PM 39.1681 -113.9331 83° East 504 580 37,000  Level Salt Lake Center
08:46PM 39.1864 -113.7547 82° East 502 578 37,000  Level Salt Lake Center
08:47PM 39.2044 -113.5778 82° East 499 574 37,000  Level Salt Lake Center
08:48PM 39.2233 -113.3669 83° East 494 568 37,000  Level Salt Lake Center
08:49PM 39.2408 -113.1908 83° East 496 571 37,000  Level Salt Lake Center
08:50PM 39.2564 -113.0178 83° East 488 562 37,000  Level Salt Lake Center
08:51PM 39.2725 -112.8431 84° East 490 564 37,000  Level Salt Lake Center
08:52PM 39.2725 -112.8292 84° East  Level FlightAware Approximate
08:52PM 39.2886 -112.6689 83° East 489 563 37,000  Level Salt Lake Center
08:53PM 39.3078 -112.4797 82° East 486 559 37,000  Level Salt Lake Center
08:55PM 39.3408 -112.3083 76° East 493 567 37,000  Level Salt Lake Center
08:56PM 39.3719 -112.1361 77° East 493 567 37,000  Level Salt Lake Center
08:57PM 39.4036 -111.9653 76° East 492 566 37,000  Level Salt Lake Center
08:58PM 39.4342 -111.7933 77° East 493 567 37,000  Level Salt Lake Center
08:59PM 39.4650 -111.6225 77° East 492 566 37,000  Level Salt Lake Center
09:00PM 39.5033 -111.4183 76° East 491 565 37,000  Level Salt Lake Center
09:01PM 39.5314 -111.2547 77° East 493 567 37,000  Level Salt Lake Center
09:02PM 39.5608 -111.0917 77° East 487 560 37,000  Level Salt Lake Center
09:03PM 39.5947 -110.9006 77° East 488 562 37,000  Level Salt Lake Center
09:04PM 39.6219 -110.7361 78° East 486 559 37,000  Level Salt Lake Center
09:05PM 39.6547 -110.5464 77° East 484 557 37,000  Level Salt Lake Center
09:06PM 39.6822 -110.3836 78° East 482 555 37,000  Level Salt Lake Center
09:07PM 39.7094 -110.2206 78° East 483 556 37,000  Level Salt Lake Center
09:08PM 39.7394 -110.0308 78° East 480 552 37,000  Level Salt Lake Center
09:09PM 39.7669 -109.8681 78° East 482 555 37,000  Level Salt Lake Center
09:10PM 39.7839 -109.7583 79° East 481 554 37,000  Level Denver Center
09:11PM 39.8153 -109.5681 78° East 481 554 37,000  Level Denver Center
09:11PM 39.8247 -109.5147 77° East 482 555 37,000  Level Salt Lake Center
09:12PM 39.8503 -109.3511 78° East 481 554 37,000  Level Salt Lake Center
09:13PM 39.8719 -109.2139 78° East 479 551 37,000  Level Denver Center
09:14PM 39.8978 -109.0486 78° East 483 556 37,000  Level Denver Center
09:14PM 39.9069 -108.9964 77° East 480 552 37,000  Level Salt Lake Center
09:15PM 39.9319 -108.8306 79° East 482 555 37,000  Level Salt Lake Center
09:16PM 39.9533 -108.6917 79° East 482 555 37,000  Level Denver Center
09:17PM 39.9783 -108.5256 79° East 484 557 37,000  Level Denver Center
09:17PM 39.9861 -108.4733 79° East 480 552 37,000  Level Salt Lake Center
09:18PM 40.0025 -108.3631 79° East 477 549 37,000  Level Denver Center
09:19PM 40.0308 -108.1719 79° East 478 550 37,000  Level Denver Center
09:20PM 40.0547 -108.0083 79° East 478 550 37,000  Level Denver Center
09:21PM 40.0908 -107.8192 76° East 481 554 37,000  Level Denver Center
09:22PM 40.1283 -107.6611 73° East 478 550 37,000  Level Denver Center
09:23PM 40.1714 -107.4742 73° East 481 554 37,000  Level Denver Center
09:24PM 40.2069 -107.3144 74° East 479 551 37,000  Level Denver Center
09:25PM 40.2506 -107.1269 73° East 482 555 37,000  Level Denver Center
09:26PM 40.2861 -106.9653 74° East 483 556 37,000  Level Denver Center
09:27PM 40.3258 -106.7911 73° East 485 558 37,000  Level Denver Center
09:28PM 40.3636 -106.6203 74° East 486 559 37,000  Level Denver Center
09:29PM 40.4000 -106.4500 74° East 487 560 37,000  Level Denver Center
09:31PM 40.4490 -106.2139 75° East  Level FlightAware Approximate
09:31PM 40.4811 -106.0836 75° East 481 554 37,000  Level Denver Center
09:32PM 40.5161 -105.9150 75° East 480 552 37,000  Level Denver Center
09:33PM 40.5519 -105.7458 74° East 479 551 37,000  Level Denver Center
09:34PM 40.5864 -105.5786 75° East 474 545 37,000  Level Denver Center
09:35PM 40.6217 -105.4092 75° East 478 550 37,000  Level Denver Center
09:36PM 40.6561 -105.2394 75° East 477 549 37,000  Level Denver Center
09:37PM 40.6992 -105.0353 74° East 478 550 37,000  Level Denver Center
09:38PM 40.7339 -104.8642 75° East 481 554 37,000  Level Denver Center
09:39PM 40.7675 -104.6919 75° East 480 552 37,000  Level Denver Center
09:40PM 40.8036 -104.5189 75° East 486 559 37,000  Level Denver Center
09:41PM 40.8372 -104.3450 76° East 488 562 37,000  Level Denver Center
09:43PM 40.8703 -104.1717 76° East 487 560 37,000  Level Denver Center
09:44PM 40.9042 -104.0014 75° East 482 555 37,000  Level Denver Center
09:45PM 40.9439 -103.7936 76° East 485 558 37,000  Level Denver Center
09:46PM 40.9764 -103.6222 76° East 481 554 37,000  Level Denver Center
09:47PM 41.0069 -103.4642 76° East 484 557 37,000  Level Denver Center
09:48PM 41.0431 -103.2700 76° East 487 560 37,000  Level Denver Center
09:49PM 41.0731 -103.1064 76° East 481 554 37,000  Level Denver Center
09:50PM 41.1017 -102.9203 78° East 488 562 37,000  Level Denver Center
09:51PM 41.1161 -102.7186 85° East 491 565 37,000  Level Denver Center
09:52PM 41.1308 -102.5450 84° East 495 570 37,000  Level Denver Center
09:53PM 41.1472 -102.3414 84° East 498 573 37,000  Level Denver Center
09:54PM 41.1586 -102.1653 85° East 499 574 37,000  Level Denver Center
09:55PM 41.1708 -101.9869 85° East 506 582 37,000  Level Denver Center
09:56PM 41.1864 -101.7794 84° East 504 580 37,000  Level Denver Center
09:57PM 41.1997 -101.6017 84° East 505 581 37,000  Level Denver Center
09:58PM 41.2142 -101.3922 85° East 508 585 37,000  Level Denver Center
09:59PM 41.2253 -101.2125 85° East 508 585 37,000  Level Denver Center
10:00PM 41.2394 -101.0028 85° East 507 583 37,000  Level Denver Center
10:01PM 41.2517 -100.8217 85° East 510 587 37,000  Level Denver Center
10:02PM 41.2625 -100.6406 85° East 510 587 37,000  Level Denver Center
10:03PM 41.2753 -100.4314 85° East 506 582 37,000  Level Denver Center
10:04PM 41.2853 -100.2506 86° East 509 586 37,000  Level Denver Center
10:05PM 41.2969 -100.0392 86° East 511 588 37,000  Level Denver Center
10:06PM 41.3067 -99.8556 86° East 517 595 37,000  Level Denver Center
10:07PM 41.3172 -99.6439 86° East 514 592 37,000  Level Denver Center
10:08PM 41.3256 -99.4614 86° East 516 594 37,000  Level Denver Center
10:09PM 41.3367 -99.2567 86° East 519 597 37,000  Level Denver Center
10:10PM 41.3450 -99.0631 87° East 520 598 37,000  Level Denver Center
10:11PM 41.3553 -98.8686 86° East 518 596 37,000  Level Denver Center
10:12PM 41.3561 -98.7914 89° East 519 597 37,000  Level Minneapolis Center
10:13PM 41.3669 -98.5631 86° East 517 595 37,000  Level Minneapolis Center
10:14PM 41.3761 -98.3669 86° East 515 593 37,000  Level Minneapolis Center
10:15PM 41.3817 -98.1778 88° East 511 588 37,000  Level Minneapolis Center
10:16PM 41.3872 -97.9961 88° East 509 586 37,000  Level Minneapolis Center
10:17PM 41.3933 -97.8072 87° East 510 587 37,000  Level Minneapolis Center
10:18PM 41.3978 -97.6192 88° East 508 585 37,000  Level Minneapolis Center
10:19PM 41.4031 -97.4297 88° East 511 588 37,000  Level Minneapolis Center
10:20PM 41.4075 -97.2406 88° East 512 589 37,000  Level Minneapolis Center
10:21PM 41.4122 -97.0506 88° East 513 590 37,000  Level Minneapolis Center
10:22PM 41.4167 -96.8231 88° East 511 588 37,000  Level Minneapolis Center
10:23PM 41.4206 -96.6339 88° East 511 588 37,000  Level Minneapolis Center
10:24PM 41.4244 -96.4439 88° East 511 588 37,000  Level Minneapolis Center
10:25PM 41.4267 -96.2461 89° East 511 588 37,000  Level Minneapolis Center
10:26PM 41.4292 -96.0564 89° East 512 589 37,000  Level Minneapolis Center
10:27PM 41.4322 -95.8703 89° East 506 582 37,000  Level Minneapolis Center
10:28PM 41.4044 -95.6881 101° East 506 582 37,000  Level Minneapolis Center
10:29PM 41.3600 -95.5042 108° East 502 578 37,000  Level Minneapolis Center
10:30PM 41.3183 -95.3275 107° East 500 575 37,000  Level Minneapolis Center
10:31PM 41.2769 -95.1494 107° East 504 580 37,000  Level Minneapolis Center
10:32PM 41.2147 -94.9831 116° Southeast 503 579 37,000  Level Minneapolis Center
10:33PM 41.1489 -94.8181 118° Southeast 505 581 37,000  Level Minneapolis Center
10:34PM 41.0844 -94.6522 117° Southeast 507 583 37,000  Level Minneapolis Center
10:35PM 41.0228 -94.4636 113° Southeast 500 575 37,000  Level Minneapolis Center
10:36PM 41.0253 -94.2769 89° East 503 579 37,000  Level Minneapolis Center
10:38PM 41.0214 -94.0908 92° East 508 585 37,000  Level Minneapolis Center
10:39PM 41.0153 -93.9075 92° East 505 581 37,000  Level Minneapolis Center
10:40PM 41.0108 -93.7217 92° East 507 583 37,000  Level Minneapolis Center
10:41PM 41.0061 -93.5372 92° East 507 583 37,000  Level Minneapolis Center
10:42PM 41.0006 -93.3128 92° East 509 586 37,000  Level Minneapolis Center
10:43PM 40.9947 -93.1278 92° East 507 583 37,000  Level Minneapolis Center
10:43PM 40.9922 -93.0514 92° East 507 583 37,000  Level Chicago Center
10:44PM 40.9853 -92.8675 93° East 504 580 37,000  Level Chicago Center
10:45PM 40.9778 -92.6825 93° East 506 582 37,000  Level Chicago Center
10:46PM 40.9697 -92.4608 93° East 505 581 37,000  Level Chicago Center
10:47PM 40.9622 -92.2764 93° East 504 580 37,000  Level Chicago Center
10:48PM 40.9542 -92.0914 93° East 506 582 37,000  Level Chicago Center
10:49PM 40.9461 -91.9078 93° East 504 580 37,000  Level Chicago Center
10:50PM 40.9375 -91.7239 93° East 505 581 37,000  Level Chicago Center
10:51PM 40.9303 -91.5406 93° East 503 579 37,000  Level Chicago Center
10:52PM 40.9211 -91.3558 94° East 506 582 37,000  Level Chicago Center
10:53PM 40.9097 -91.1525 94° East 507 583 37,000  Level Chicago Center
10:54PM 40.9006 -90.9678 94° East 505 581 37,000  Level Chicago Center
10:55PM 40.8911 -90.7836 94° East 503 579 37,000  Level Chicago Center
10:56PM 40.8811 -90.6011 94° East 500 575 37,000  Level Chicago Center
10:57PM 40.8703 -90.4169 94° East 501 577 37,000  Level Chicago Center
10:59PM 40.8578 -90.2025 94° East 501 577 37,000  Level Chicago Center
11:00PM 40.8483 -90.0211 94° East 498 573 37,000  Level Chicago Center
11:01PM 40.8361 -89.8378 95° East 506 582 37,000  Level Chicago Center
11:02PM 40.8219 -89.6558 96° East 502 578 37,000  Level Chicago Center
11:03PM 40.8111 -89.4467 94° East 507 583 37,000  Level Chicago Center
11:04PM 40.7983 -89.2600 95° East 511 588 37,000  Level Chicago Center
11:05PM 40.7847 -89.0722 95° East 515 593 37,000  Level Chicago Center
11:06PM 40.7711 -88.8842 95° East 516 594 37,000  Level Chicago Center
11:07PM 40.7583 -88.6950 95° East 513 590 37,000  Level Chicago Center
11:08PM 40.7442 -88.5100 96° East 512 589 37,000  Level Chicago Center
11:09PM 40.7308 -88.3231 95° East 517 595 37,000  Level Chicago Center
11:10PM 40.7183 -88.1358 95° East 518 596 37,000  Level Chicago Center
11:11PM 40.7006 -87.9128 96° East 515 593 37,000  Level Chicago Center
11:12PM 40.6853 -87.7275 96° East 514 592 37,000  Level Chicago Center
11:13PM 40.6717 -87.5408 95° East 517 595 37,000  Level Chicago Center
11:14PM 40.6542 -87.3572 97° East 513 590 37,000  Level Chicago Center
11:15PM 40.6394 -87.1703 96° East 517 595 37,000  Level Chicago Center
11:16PM 40.6211 -86.9789 97° East 524 603 37,000  Level Chicago Center
11:17PM 40.6047 -86.7875 96° East 525 604 37,000  Level Chicago Center
11:18PM 40.5881 -86.5972 97° East 523 602 37,000  Level Chicago Center
11:19PM 40.5708 -86.4072 97° East 522 601 37,000  Level Chicago Center
11:20PM 40.5494 -86.1806 97° East 520 598 37,000  Level Chicago Center
11:21PM 40.5308 -85.9914 97° East 520 598 37,000  Level Chicago Center
11:22PM 40.5125 -85.8011 97° East 523 602 37,000  Level Chicago Center
11:23PM 40.4947 -85.6092 97° East 528 608 37,000  Level Chicago Center
11:24PM 40.4756 -85.4178 97° East 532 612 37,000  Level Chicago Center
11:25PM 40.4556 -85.2278 98° East 529 609 37,000  Level Chicago Center
11:26PM 40.4369 -85.0353 97° East 529 609 37,000  Level Chicago Center
11:27PM 40.4264 -84.9581 100° East 530 610 37,000  Level Indianapolis Center
11:28PM 40.4036 -84.7347 98° East 535 616 37,000  Level Indianapolis Center
11:29PM 40.3825 -84.5419 98° East 532 612 37,000 -60 Level Indianapolis Center
11:30PM 40.3606 -84.3483 98° East 531 611 36,900  Descending Indianapolis Center
11:31PM 40.3397 -84.1547 98° East 532 612 37,000  Climbing Indianapolis Center
11:32PM 40.3172 -83.9611 99° East 532 612 36,900  Descending Indianapolis Center
11:33PM 40.2944 -83.7650 99° East 537 618 37,000  Climbing Indianapolis Center
11:34PM 40.2725 -83.5700 98° East 534 615 37,000  Level Indianapolis Center
11:35PM 40.2481 -83.3728 99° East 539 620 37,000  Level Indianapolis Center
11:36PM 40.2156 -83.1783 102° East 538 619 37,000  Level Indianapolis Center
11:37PM 40.1797 -82.9844 104° East 540 621 37,000 -60 Level Indianapolis Center
11:38PM 40.1444 -82.7928 103° East 537 618 36,900  Descending Indianapolis Center
11:39PM 40.1083 -82.6022 104° East 535 616 37,000  Climbing Indianapolis Center
11:40PM 40.0728 -82.4133 104° East 534 615 36,900 -480 Descending Indianapolis Center
11:41PM 40.0361 -82.2233 104° East 534 615 36,100 -780 Descending Indianapolis Center
11:42PM 40.0000 -82.0342 104° East 533 613 35,400 -600 Descending Indianapolis Center
11:43PM 39.9639 -81.8456 104° East 532 612 34,900 -240 Descending Indianapolis Center
11:44PM 39.9269 -81.6578 104° East 532 612 35,000  Climbing Indianapolis Center
11:45PM 39.8897 -81.4692 104° East 533 613 35,000 -180 Level Indianapolis Center
11:46PM 39.8514 -81.2819 105° East 537 618 34,700 -660 Descending Indianapolis Center
11:47PM 39.8150 -81.0958 104° East 533 613 33,700 -1,020 Descending Indianapolis Center
11:48PM 39.7764 -80.9100 105° East 532 612 32,700 -1,080 Descending Indianapolis Center
11:49PM 39.7294 -80.6839 105° East 539 620 31,600 -1,020 Descending Indianapolis Center
11:50PM 39.7044 -80.5589 105° East 532 612 31,000 -240 Descending Cleveland Center
11:52PM 39.6231 -80.1583 105° East 525 604 31,000  Level Washington Center
11:53PM 39.5842 -79.9725 105° East 525 604 31,000  Level Washington Center
11:54PM 39.5469 -79.7872 105° East 520 598 31,000 -1,560 Level Washington Center
11:55PM 39.5117 -79.5997 104° East 520 598 28,000 -2,340 Descending Washington Center
11:56PM 39.4819 -79.4206 102° East 520 598 26,300 -1,860 Descending Washington Center
11:57PM 39.4442 -79.2278 104° East 510 587 24,300 -2,040 Descending Washington Center
11:58PM 39.4175 -79.0733 103° East 480 552 22,400 -2,040 Descending Washington Center
11:59PM 39.3883 -78.9214 104° East 455 524 20,300 -2,100 Descending Washington Center
12:00AM 39.3633 -78.7753 102° East 430 495 18,200 -2,100 Descending Washington Center
12:01AM 39.3375 -78.6400 104° East 415 478 16,200 -2,040 Descending Washington Center
12:02AM 39.3139 -78.5022 102° East 388 447 14,200 -2,040 Descending Washington Center
12:03AM 39.2878 -78.3725 105° East 376 433 12,200 -1,620 Descending Washington Center
12:04AM 39.2444 -78.2608 117° Southeast 363 418 11,000 -1,200 Descending Washington Center
12:05AM 39.2156 -78.1553 109° East 340 391 9,900 -1,260 Descending Washington Center
12:06AM 39.1883 -78.0525 109° East 317 365 8,600 -1,380 Descending Washington Center
12:07AM 39.1611 -77.9553 110° East 301 346 7,200 -1,380 Descending Washington Center
12:08AM 39.1589 -77.8536 92° East 286 329 5,800 -1,380 Descending Washington Center
12:09AM 39.1586 -77.7519 90° East 281 323 4,500 -1,200 Descending Washington Center
12:10AM 39.1353 -77.6681 110° East 249 287 3,500 -780 Descending Washington Center
12:11AM 39.1167 -77.6167 115° Southeast 259 298 3,200 -420 Descending Potomac TRACON